Time;durP1;ratioP1;P1;durP2;ratioP2;P2;SDS_P1;SDS_P2;PMS_P1;PMS_P2;Temp;Humidity;BMP_temperature;BMP_pressure;BME280_temperature;BME280_humidity;BME280_pressure;Samples;Min_cycle;Max_cycle;Signal;HPM_P1;HPM_P2
2021/03/15 00:02:24;;;;;;;6.75;1.52;;;17.00;60.30;;;;;;5053135;28;20036;-74
2021/03/15 00:04:50;;;;;;;8.10;2.22;;;17.00;60.30;;;;;;5052582;28;20028;-76
2021/03/15 00:07:15;;;;;;;4.95;1.67;;;17.00;60.30;;;;;;5052956;28;20037;-74
2021/03/15 00:09:41;;;;;;;6.97;1.45;;;17.00;60.20;;;;;;5052677;28;20048;-75
2021/03/15 00:12:08;;;;;;;6.80;1.85;;;16.90;60.30;;;;;;5034936;28;20105;-75
2021/03/15 00:14:34;;;;;;;6.30;1.77;;;16.90;60.20;;;;;;5052950;28;20408;-74
2021/03/15 00:17:00;;;;;;;5.78;1.75;;;16.90;60.30;;;;;;5052963;28;20036;-75
2021/03/15 00:19:25;;;;;;;6.55;2.00;;;16.90;60.20;;;;;;5052744;28;20044;-75
2021/03/15 00:21:51;;;;;;;5.13;1.70;;;16.80;60.20;;;;;;5052704;28;20025;-76
2021/03/15 00:24:17;;;;;;;6.95;2.38;;;16.80;60.20;;;;;;5052527;28;20039;-75
2021/03/15 00:26:43;;;;;;;4.38;1.63;;;16.80;60.30;;;;;;5052809;28;20102;-75
2021/03/15 00:29:08;;;;;;;8.90;2.25;;;16.80;60.10;;;;;;5052494;28;20024;-76
2021/03/15 00:31:34;;;;;;;7.72;1.42;;;16.70;60.20;;;;;;5034817;28;20404;-76
2021/03/15 00:34:00;;;;;;;7.28;1.80;;;16.70;60.30;;;;;;5052033;28;20075;-76
2021/03/15 00:36:25;;;;;;;7.15;1.80;;;16.70;60.30;;;;;;5034401;28;20043;-75
2021/03/15 00:38:51;;;;;;;8.88;2.10;;;16.70;60.40;;;;;;5052255;28;20075;-74
2021/03/15 00:41:17;;;;;;;5.90;1.70;;;16.60;60.30;;;;;;5052155;28;20116;-74
2021/03/15 00:43:42;;;;;;;9.63;1.77;;;16.60;60.40;;;;;;5052399;28;20017;-74
2021/03/15 00:46:08;;;;;;;8.27;2.13;;;16.60;60.50;;;;;;5051766;28;20094;-73
2021/03/15 00:48:34;;;;;;;5.47;1.73;;;16.50;60.50;;;;;;5052264;28;20041;-73
2021/03/15 00:51:00;;;;;;;8.00;2.03;;;16.50;60.40;;;;;;5051524;28;20029;-74
2021/03/15 00:53:25;;;;;;;7.70;2.00;;;16.50;60.40;;;;;;5052540;28;20033;-73
2021/03/15 00:55:51;;;;;;;6.10;2.05;;;16.50;60.50;;;;;;5051736;28;20021;-74
2021/03/15 00:58:16;;;;;;;5.60;1.80;;;16.40;60.40;;;;;;5052237;28;20071;-76
2021/03/15 01:00:45;;;;;;;8.68;2.30;;;16.40;60.50;;;;;;5051944;28;20033;-76
2021/03/15 01:03:10;;;;;;;7.78;1.80;;;16.40;60.40;;;;;;5051576;28;20025;-75
2021/03/15 01:05:47;;;;;;;9.05;2.47;;;16.40;60.50;;;;;;5034163;28;20049;-74
2021/03/15 01:08:15;;;;;;;5.75;2.00;;;16.30;60.50;;;;;;5051802;28;20506;-73
2021/03/15 01:10:42;;;;;;;8.40;2.10;;;16.30;60.70;;;;;;5051387;28;20075;-74
2021/03/15 01:13:09;;;;;;;7.78;2.10;;;16.30;60.80;;;;;;5051926;28;20477;-73
2021/03/15 01:15:36;;;;;;;11.88;2.53;;;16.30;60.80;;;;;;5051882;28;20056;-74
2021/03/15 01:18:02;;;;;;;7.80;2.20;;;16.30;60.60;;;;;;5051240;28;20041;-74
2021/03/15 01:20:28;;;;;;;6.28;1.88;;;16.30;60.90;;;;;;5051728;28;20074;-74
2021/03/15 01:22:55;;;;;;;7.22;1.95;;;16.20;60.90;;;;;;5051526;28;20542;-74
2021/03/15 01:25:34;;;;;;;6.00;1.70;;;16.20;60.70;;;;;;5051020;28;20108;-74
2021/03/15 01:28:00;;;;;;;7.20;1.95;;;16.20;61.40;;;;;;5052027;28;20025;-74
2021/03/15 01:30:29;;;;;;;8.30;2.40;;;16.20;60.90;;;;;;5051254;28;20455;-74
2021/03/15 01:32:55;;;;;;;6.70;2.42;;;16.20;60.80;;;;;;5051570;28;20013;-74
2021/03/15 01:35:21;;;;;;;6.35;1.95;;;16.20;60.70;;;;;;5050501;28;20036;-75
2021/03/15 01:37:47;;;;;;;6.63;2.13;;;16.20;60.60;;;;;;5051721;28;20025;-74
2021/03/15 01:40:14;;;;;;;7.00;2.33;;;16.20;60.70;;;;;;5051075;28;20409;-73
2021/03/15 01:42:39;;;;;;;5.60;1.65;;;16.20;60.80;;;;;;5051259;28;20018;-74
2021/03/15 01:45:06;;;;;;;8.63;2.38;;;16.20;60.70;;;;;;5051273;28;20129;-74
2021/03/15 01:47:33;;;;;;;8.85;2.40;;;16.20;60.70;;;;;;5051735;28;20021;-74
2021/03/15 01:49:58;;;;;;;6.75;2.22;;;16.10;60.70;;;;;;5033206;28;20043;-73
2021/03/15 01:52:24;;;;;;;10.63;2.42;;;16.10;60.90;;;;;;5033735;28;20029;-75
2021/03/15 01:54:51;;;;;;;6.10;1.60;;;16.10;61.00;;;;;;5050971;28;20028;-76
2021/03/15 01:57:16;;;;;;;7.50;2.15;;;16.10;61.00;;;;;;5051225;28;20116;-73
2021/03/15 01:59:42;;;;;;;7.43;2.28;;;16.10;60.90;;;;;;5033287;28;20445;-76
2021/03/15 02:02:08;;;;;;;6.20;1.75;;;16.00;61.00;;;;;;5050986;28;20028;-75
2021/03/15 02:04:33;;;;;;;9.05;2.17;;;16.00;61.60;;;;;;5051039;28;20044;-75
2021/03/15 02:06:59;;;;;;;8.38;2.45;;;16.00;61.00;;;;;;5051538;28;20040;-75
2021/03/15 02:09:24;;;;;;;3.65;1.40;;;16.00;61.10;;;;;;5050790;28;20052;-76
2021/03/15 02:12:03;;;;;;;5.32;1.80;;;16.00;61.00;;;;;;5050808;28;20392;-75
2021/03/15 02:15:07;;;;;;;6.10;1.77;;;15.90;61.20;;;;;;5051287;28;20025;-75
2021/03/15 02:17:33;;;;;;;6.00;1.80;;;15.90;61.00;;;;;;5033593;28;20369;-74
2021/03/15 02:20:04;;;;;;;8.68;1.80;;;15.90;61.10;;;;;;5050364;28;20039;-75
2021/03/15 02:22:57;;;;;;;7.55;2.17;;;15.90;61.30;;;;;;5051016;28;20064;-75
2021/03/15 02:25:26;;;;;;;7.25;1.77;;;15.90;61.10;;;;;;5050552;28;20025;-75
2021/03/15 02:28:29;;;;;;;7.43;2.45;;;15.90;61.20;;;;;;5042075;28;20033;-75
2021/03/15 02:31:20;;;;;;;4.05;1.65;;;15.90;61.10;;;;;;5028871;28;20037;-74
2021/03/15 02:34:10;;;;;;;6.70;1.83;;;15.90;61.00;;;;;;5054664;28;20039;-75
2021/03/15 02:36:40;;;;;;;6.90;1.70;;;15.90;61.10;;;;;;5054604;28;20033;-75
2021/03/15 02:39:15;;;;;;;5.45;1.95;;;15.90;61.10;;;;;;5054182;28;20028;-74
2021/03/15 02:41:42;;;;;;;9.23;2.15;;;15.90;61.20;;;;;;5053827;28;20021;-75
2021/03/15 02:44:09;;;;;;;8.13;2.53;;;15.90;61.30;;;;;;5054354;28;20522;-75
2021/03/15 02:46:36;;;;;;;6.30;1.85;;;15.80;61.20;;;;;;5054958;28;20025;-73
2021/03/15 02:49:06;;;;;;;9.05;1.95;;;15.80;61.20;;;;;;5054357;28;20432;-73
2021/03/15 02:51:35;;;;;;;7.00;2.05;;;15.90;61.20;;;;;;5034782;28;20052;-73
2021/03/15 02:54:02;;;;;;;5.93;1.63;;;15.80;61.30;;;;;;5040582;28;20025;-73
2021/03/15 02:56:31;;;;;;;5.95;1.27;;;15.80;61.20;;;;;;5054315;28;20025;-73
2021/03/15 02:59:01;;;;;;;7.03;1.65;;;15.80;61.30;;;;;;5054480;28;20107;-73
2021/03/15 03:01:28;;;;;;;6.00;1.70;;;15.80;61.30;;;;;;5054137;28;20017;-74
2021/03/15 03:03:55;;;;;;;4.45;2.03;;;15.80;61.40;;;;;;5054071;28;20401;-73
2021/03/15 03:06:24;;;;;;;6.97;2.05;;;15.80;61.40;;;;;;5054070;28;20033;-73
2021/03/15 03:08:52;;;;;;;5.65;1.85;;;15.80;61.40;;;;;;5054099;28;20017;-75
2021/03/15 03:11:21;;;;;;;5.80;1.75;;;15.80;61.50;;;;;;5053682;28;20025;-75
2021/03/15 03:13:49;;;;;;;5.90;1.55;;;15.80;61.50;;;;;;5054387;28;20028;-76
2021/03/15 03:16:16;;;;;;;5.68;2.05;;;15.80;61.50;;;;;;5053923;28;20048;-76
2021/03/15 03:18:44;;;;;;;6.57;1.83;;;15.70;61.50;;;;;;5035692;28;20028;-74
2021/03/15 03:21:10;;;;;;;6.93;2.15;;;15.70;61.50;;;;;;5054166;28;20028;-75
2021/03/15 03:23:39;;;;;;;7.18;1.88;;;15.70;61.60;;;;;;5054068;28;20112;-75
2021/03/15 03:26:06;;;;;;;3.72;1.73;;;15.70;61.70;;;;;;5053472;28;20062;-75
2021/03/15 03:28:33;;;;;;;5.65;1.40;;;15.70;61.70;;;;;;5053768;28;20519;-75
2021/03/15 03:31:02;;;;;;;6.10;2.15;;;15.70;61.70;;;;;;5053806;28;20029;-75
2021/03/15 03:33:28;;;;;;;7.15;1.80;;;15.70;61.80;;;;;;5053190;28;20561;-74
2021/03/15 03:35:54;;;;;;;7.10;2.00;;;15.70;61.80;;;;;;5053706;28;20123;-75
2021/03/15 03:38:20;;;;;;;7.85;2.10;;;15.70;62.70;;;;;;5053513;28;20433;-76
2021/03/15 03:40:47;;;;;;;6.68;2.10;;;15.60;61.90;;;;;;5052965;28;20057;-74
2021/03/15 03:43:13;;;;;;;6.20;1.88;;;15.60;61.90;;;;;;5053369;28;20029;-76
2021/03/15 03:45:38;;;;;;;7.20;2.20;;;15.60;62.00;;;;;;5053389;28;20032;-73
2021/03/15 03:48:05;;;;;;;7.97;2.53;;;15.60;62.10;;;;;;5053538;28;20397;-73
2021/03/15 03:50:33;;;;;;;5.55;1.75;;;15.60;62.00;;;;;;5053187;28;20055;-73
2021/03/15 03:53:15;;;;;;;5.38;1.63;;;15.60;62.00;;;;;;5053514;28;20029;-73
2021/03/15 03:56:12;;;;;;;4.80;1.48;;;15.60;62.10;;;;;;5052381;28;20540;-73
2021/03/15 03:58:49;;;;;;;5.75;1.88;;;15.60;62.00;;;;;;5053554;28;20021;-73
2021/03/15 04:01:15;;;;;;;7.40;1.77;;;15.60;62.10;;;;;;5052968;28;20032;-75
2021/03/15 04:03:44;;;;;;;7.25;2.05;;;15.60;62.10;;;;;;5053239;28;20447;-75
2021/03/15 04:06:13;;;;;;;6.47;1.90;;;15.60;62.10;;;;;;5052518;28;20489;-75
2021/03/15 04:08:48;;;;;;;5.10;1.73;;;15.60;62.10;;;;;;5053274;28;20393;-74
2021/03/15 04:11:15;;;;;;;6.70;1.83;;;15.60;62.10;;;;;;5052848;28;20025;-75
2021/03/15 04:13:43;;;;;;;6.10;2.20;;;15.60;62.10;;;;;;5053120;28;20025;-75
2021/03/15 04:16:12;;;;;;;5.57;1.42;;;15.60;62.20;;;;;;5053152;28;20021;-73
2021/03/15 04:18:42;;;;;;;6.63;1.95;;;15.60;62.20;;;;;;5053249;28;20022;-76
2021/03/15 04:21:09;;;;;;;6.10;1.67;;;15.60;62.20;;;;;;5052833;28;20021;-76
2021/03/15 04:23:39;;;;;;;4.25;1.92;;;15.60;62.10;;;;;;5052763;28;20033;-75
2021/03/15 04:26:06;;;;;;;4.72;2.15;;;15.60;62.20;;;;;;5052724;28;20069;-75
2021/03/15 04:28:36;;;;;;;4.57;1.83;;;15.60;62.10;;;;;;5052918;28;20365;-75
2021/03/15 04:31:03;;;;;;;8.13;1.80;;;15.50;62.20;;;;;;5050971;28;20409;-75
2021/03/15 04:33:29;;;;;;;5.18;1.88;;;15.50;62.20;;;;;;5052607;28;20107;-75
2021/03/15 04:35:56;;;;;;;4.60;1.45;;;15.50;62.20;;;;;;5052674;28;20017;-74
2021/03/15 04:38:22;;;;;;;6.05;1.50;;;15.50;62.20;;;;;;5052837;28;20051;-74
2021/03/15 04:40:49;;;;;;;5.20;1.83;;;15.50;62.20;;;;;;5051506;28;20032;-73
2021/03/15 04:43:16;;;;;;;5.40;1.70;;;15.60;62.20;;;;;;5052529;28;20489;-73
2021/03/15 04:45:43;;;;;;;5.72;1.90;;;15.50;62.20;;;;;;5052015;28;20475;-75
2021/03/15 04:48:18;;;;;;;4.78;1.70;;;15.50;62.20;;;;;;5052357;28;20048;-73
2021/03/15 04:50:45;;;;;;;4.93;1.85;;;15.50;62.20;;;;;;5051828;28;20504;-73
2021/03/15 04:53:13;;;;;;;5.88;1.92;;;15.50;62.30;;;;;;5051731;28;20033;-74
2021/03/15 04:55:43;;;;;;;4.72;1.80;;;15.50;62.20;;;;;;5052629;28;20544;-73
2021/03/15 04:58:10;;;;;;;6.57;2.00;;;15.50;62.30;;;;;;5051430;28;20474;-73
2021/03/15 05:00:38;;;;;;;6.40;1.85;;;15.50;62.30;;;;;;5052046;28;20021;-73
2021/03/15 05:03:10;;;;;;;5.65;1.60;;;15.50;62.40;;;;;;5034233;28;20057;-73
2021/03/15 05:05:38;;;;;;;4.75;2.00;;;15.50;62.40;;;;;;5051618;28;20504;-72
2021/03/15 05:08:06;;;;;;;4.75;1.70;;;15.50;62.40;;;;;;5052089;28;20037;-73
2021/03/15 05:10:33;;;;;;;5.32;1.45;;;15.40;62.50;;;;;;5051726;28;20021;-74
2021/03/15 05:13:00;;;;;;;4.68;1.63;;;15.50;62.40;;;;;;5033673;28;20465;-73
2021/03/15 05:15:26;;;;;;;6.03;1.55;;;15.40;62.50;;;;;;5051457;28;20029;-74
2021/03/15 05:17:54;;;;;;;5.22;1.58;;;15.40;62.40;;;;;;5051836;28;20100;-74
2021/03/15 05:20:20;;;;;;;5.75;1.65;;;15.40;62.40;;;;;;5051879;28;20021;-75
2021/03/15 05:22:46;;;;;;;5.57;1.83;;;15.40;62.30;;;;;;5033803;28;20027;-75
2021/03/15 05:25:13;;;;;;;5.90;2.03;;;15.40;62.20;;;;;;5052222;28;20115;-74
2021/03/15 05:27:41;;;;;;;6.38;2.17;;;15.40;62.30;;;;;;5051572;28;20025;-74
2021/03/15 05:30:10;;;;;;;5.05;2.00;;;15.40;63.10;;;;;;5051549;28;20480;-74
2021/03/15 05:32:40;;;;;;;7.13;2.08;;;15.40;62.30;;;;;;5051197;28;20033;-75
2021/03/15 05:35:07;;;;;;;6.50;1.83;;;15.40;62.30;;;;;;5051596;28;20029;-75
2021/03/15 05:37:32;;;;;;;4.57;1.52;;;15.40;62.30;;;;;;5051566;28;20024;-73
2021/03/15 05:39:58;;;;;;;5.20;1.75;;;15.40;62.40;;;;;;5051332;28;20025;-74
2021/03/15 05:42:41;;;;;;;3.53;1.50;;;15.40;62.30;;;;;;5051410;28;20029;-75
2021/03/15 05:45:26;;;;;;;6.38;1.73;;;15.40;62.30;;;;;;5051323;28;20021;-75
2021/03/15 05:48:12;;;;;;;4.40;1.48;;;15.40;62.20;;;;;;5051230;28;20449;-74
2021/03/15 05:51:02;;;;;;;9.73;2.80;;;15.40;62.20;;;;;;5051355;28;20029;-73
2021/03/15 05:54:01;;;;;;;6.28;1.63;;;15.40;62.30;;;;;;5051582;28;20021;-74
2021/03/15 05:56:34;;;;;;;5.82;1.92;;;15.40;62.40;;;;;;5051015;28;20071;-74
2021/03/15 05:59:39;;;;;;;6.40;2.30;;;15.40;62.40;;;;;;5050829;28;20496;-73
2021/03/15 06:02:42;;;;;;;4.80;1.55;;;15.30;62.40;;;;;;5049809;28;20025;-74
2021/03/15 06:05:18;;;;;;;6.78;1.80;;;15.40;62.50;;;;;;5054025;28;20033;-73
2021/03/15 06:07:48;;;;;;;;;;;15.40;62.50;;;;;;5055714;28;20057;-73
2021/03/15 06:10:32;;;;;;;9.15;2.28;;;15.40;62.60;;;;;;5055781;28;19951;-74
2021/03/15 06:13:10;;;;;;;8.18;1.80;;;15.30;62.40;;;;;;5055525;28;20021;-75
2021/03/15 06:15:46;;;;;;;5.45;1.73;;;15.30;62.50;;;;;;5054352;28;20391;-74
2021/03/15 06:18:14;;;;;;;4.40;1.55;;;15.30;62.50;;;;;;5055207;28;20111;-75
2021/03/15 06:20:50;;;;;;;4.57;1.63;;;15.30;62.50;;;;;;5054926;28;20028;-75
2021/03/15 06:23:16;;;;;;;6.10;1.90;;;15.30;62.50;;;;;;5055504;28;20396;-75
2021/03/15 06:25:47;;;;;;;4.53;1.98;;;15.30;62.60;;;;;;5054832;28;20025;-74
2021/03/15 06:28:13;;;;;;;7.95;2.47;;;15.30;62.50;;;;;;5055519;28;20385;-74
2021/03/15 06:30:40;;;;;;;5.63;1.95;;;15.30;62.50;;;;;;5054346;28;20474;-75
2021/03/15 06:33:06;;;;;;;5.30;1.80;;;15.30;62.50;;;;;;5037060;28;20033;-72
2021/03/15 06:35:37;;;;;;;5.50;1.88;;;15.30;62.60;;;;;;5036985;28;20121;-75
2021/03/15 06:38:04;;;;;;;7.10;2.20;;;15.30;62.60;;;;;;5054993;28;20032;-73
2021/03/15 06:40:31;;;;;;;4.75;1.75;;;15.30;62.60;;;;;;5053535;28;20489;-72
2021/03/15 06:42:58;;;;;;;6.57;2.22;;;15.30;62.60;;;;;;5054368;28;20024;-73
2021/03/15 06:45:24;;;;;;;4.40;1.42;;;15.30;62.60;;;;;;5052604;28;20049;-73
2021/03/15 06:47:50;;;;;;;5.00;1.63;;;15.30;62.70;;;;;;5054393;28;20396;-73
2021/03/15 06:50:17;;;;;;;5.13;2.00;;;15.30;62.70;;;;;;5055053;28;20127;-72
2021/03/15 06:53:05;;;;;;;6.15;1.67;;;15.30;62.70;;;;;;5054959;28;20104;-73
2021/03/15 06:55:34;;;;;;;2.88;1.30;;;15.40;63.40;;;;;;5054648;28;20507;-73
2021/03/15 06:58:00;;;;;;;6.18;2.05;;;15.30;62.60;;;;;;5054725;28;20431;-74
2021/03/15 07:00:30;;;;;;;4.45;1.55;;;15.30;62.70;;;;;;5054469;28;20021;-73
2021/03/15 07:03:02;;;;;;;3.38;1.40;;;15.30;62.50;;;;;;5052936;28;20033;-73
2021/03/15 07:05:32;;;;;;;4.65;1.48;;;15.40;62.30;;;;;;5054247;28;20052;-73
2021/03/15 07:07:59;;;;;;;3.58;1.48;;;15.60;62.10;;;;;;5054113;28;20032;-72
2021/03/15 07:10:33;;;;;;;3.53;1.35;;;15.70;61.80;;;;;;5041334;28;20402;-72
2021/03/15 07:13:16;;;;;;;2.83;1.20;;;16.00;61.90;;;;;;5054022;28;20108;-73
2021/03/15 07:15:48;;;;;;;3.15;1.30;;;16.30;61.30;;;;;;5052985;28;20025;-70
2021/03/15 07:18:24;;;;;;;4.07;1.30;;;16.50;60.70;;;;;;5054347;28;20017;-70
2021/03/15 07:20:53;;;;;;;8.52;1.65;;;16.80;60.40;;;;;;5054533;28;20087;-73
2021/03/15 07:23:38;;;;;;;8.48;1.35;;;16.90;60.60;;;;;;5054288;28;20027;-72
2021/03/15 07:26:13;;;;;;;3.67;1.30;;;16.90;60.90;;;;;;5054114;28;20552;-72
2021/03/15 07:28:39;;;;;;;5.55;1.45;;;17.00;60.80;;;;;;5054113;28;20017;-71
2021/03/15 07:31:26;;;;;;;5.10;1.75;;;17.10;60.80;;;;;;5053142;28;20053;-72
2021/03/15 07:33:55;;;;;;;3.67;1.00;;;17.20;61.00;;;;;;5053970;28;20396;-72
2021/03/15 07:36:21;;;;;;;5.05;1.30;;;17.30;60.90;;;;;;5053998;28;20032;-73
2021/03/15 07:38:47;;;;;;;4.30;1.15;;;17.40;61.00;;;;;;5050873;28;20086;-72
2021/03/15 07:41:18;;;;;;;6.88;1.20;;;17.50;60.90;;;;;;5053624;28;20029;-73
2021/03/15 07:43:43;;;;;;;5.22;1.20;;;17.70;60.80;;;;;;5052877;28;20104;-72
2021/03/15 07:46:22;;;;;;;6.68;1.60;;;17.80;60.80;;;;;;5053355;28;20136;-74
2021/03/15 07:48:47;;;;;;;5.43;1.25;;;17.80;60.80;;;;;;5053321;28;20043;-70
2021/03/15 07:51:13;;;;;;;5.45;1.42;;;17.80;60.60;;;;;;5052597;28;20447;-70
2021/03/15 07:53:45;;;;;;;3.45;1.10;;;17.80;60.50;;;;;;5052778;28;20040;-70
2021/03/15 07:56:17;;;;;;;5.72;1.33;;;17.80;60.00;;;;;;5053121;28;20515;-70
2021/03/15 07:58:44;;;;;;;7.20;1.50;;;17.80;59.70;;;;;;5035450;28;20068;-69
2021/03/15 08:01:10;;;;;;;3.08;1.30;;;17.80;59.50;;;;;;5052960;28;20021;-71
2021/03/15 08:03:38;;;;;;;3.53;1.08;;;17.80;59.40;;;;;;5053434;28;20401;-70
2021/03/15 08:06:05;;;;;;;4.10;0.85;;;17.80;59.30;;;;;;5052801;28;20044;-71
2021/03/15 08:08:30;;;;;;;4.47;1.38;;;17.80;59.00;;;;;;5052471;28;20489;-71
2021/03/15 08:10:57;;;;;;;5.85;1.38;;;17.80;58.90;;;;;;5051913;28;20040;-71
2021/03/15 08:13:25;;;;;;;3.67;1.10;;;17.80;58.80;;;;;;5051840;28;20032;-74
2021/03/15 08:15:56;;;;;;;5.38;1.73;;;17.90;58.70;;;;;;5053154;28;20033;-72
2021/03/15 08:18:23;;;;;;;4.45;1.00;;;17.80;58.70;;;;;;5053301;28;20556;-71
2021/03/15 08:20:51;;;;;;;3.58;1.05;;;17.80;58.70;;;;;;5053055;28;20110;-71
2021/03/15 08:23:18;;;;;;;6.40;1.67;;;17.80;58.70;;;;;;5052051;28;20511;-70
2021/03/15 08:25:46;;;;;;;2.78;0.90;;;17.80;58.70;;;;;;5052966;28;20036;-71
2021/03/15 08:28:13;;;;;;;6.93;2.25;;;17.80;58.70;;;;;;5051386;28;20021;-71
2021/03/15 08:31:00;;;;;;;5.45;1.77;;;17.80;58.60;;;;;;5052322;28;20029;-71
2021/03/15 08:33:26;;;;;;;6.60;2.30;;;17.80;58.50;;;;;;5032789;28;20051;-73
2021/03/15 08:35:56;;;;;;;9.18;4.20;;;17.80;58.40;;;;;;5015293;28;20052;-72
2021/03/15 08:38:30;;;;;;;7.68;3.72;;;17.80;58.40;;;;;;5033002;28;20037;-72
2021/03/15 08:40:57;;;;;;;6.68;4.13;;;17.70;58.50;;;;;;5048704;28;20029;-74
2021/03/15 08:43:25;;;;;;;5.80;4.30;;;17.70;58.50;;;;;;5052936;28;20496;-75
2021/03/15 08:45:51;;;;;;;7.70;4.07;;;17.70;58.50;;;;;;5052143;28;20041;-70
2021/03/15 08:48:37;;;;;;;9.07;3.90;;;17.70;58.60;;;;;;5052255;28;20036;-71
2021/03/15 08:51:14;;;;;;;5.50;3.28;;;17.70;58.60;;;;;;5051415;28;20025;-71
2021/03/15 08:53:40;;;;;;;7.03;3.45;;;17.70;58.60;;;;;;5050797;28;20392;-72
2021/03/15 08:56:19;;;;;;;6.10;3.58;;;17.60;58.60;;;;;;5052242;28;20025;-74
2021/03/15 08:58:45;;;;;;;8.90;3.75;;;17.60;58.60;;;;;;5052026;28;20028;-71
2021/03/15 09:01:12;;;;;;;6.68;3.17;;;17.60;58.60;;;;;;5052268;28;20051;-70
2021/03/15 09:03:50;;;;;;;5.95;3.15;;;17.60;58.50;;;;;;5033802;28;20032;-73
2021/03/15 09:06:36;;;;;;;9.13;3.13;;;17.60;58.50;;;;;;5051818;28;20048;-72
2021/03/15 09:09:11;;;;;;;4.30;2.50;;;17.60;58.40;;;;;;5051943;28;20074;-72
2021/03/15 09:11:37;;;;;;;5.90;2.25;;;17.60;58.30;;;;;;5051945;28;20120;-72
2021/03/15 09:14:18;;;;;;;5.43;2.90;;;17.60;58.30;;;;;;5052232;28;20021;-70
2021/03/15 09:17:15;;;;;;;5.25;2.13;;;17.60;58.30;;;;;;5051629;28;20017;-71
2021/03/15 09:19:49;;;;;;;6.05;3.05;;;17.60;58.80;;;;;;5039946;28;20575;-72
2021/03/15 09:22:34;;;;;;;4.65;2.30;;;17.50;58.60;;;;;;5051963;28;20540;-70
2021/03/15 09:25:06;;;;;;;4.00;2.30;;;17.60;58.20;;;;;;5051941;28;20027;-72
2021/03/15 09:27:41;;;;;;;4.72;2.03;;;17.50;58.20;;;;;;5051071;28;20120;-70
2021/03/15 09:30:29;;;;;;;4.05;1.88;;;17.50;58.20;;;;;;5034594;28;20104;-70
2021/03/15 09:32:57;;;;;;;4.30;1.88;;;17.40;58.70;;;;;;5051289;28;20458;-70
2021/03/15 09:35:23;;;;;;;4.07;2.08;;;17.40;58.30;;;;;;5050957;28;20489;-70
2021/03/15 09:37:52;;;;;;;5.15;1.98;;;17.40;58.90;;;;;;5051571;28;20028;-70
2021/03/15 09:40:21;;;;;;;6.10;2.20;;;17.30;58.20;;;;;;5050146;28;20033;-74
2021/03/15 09:42:47;;;;;;;6.03;1.80;;;17.30;58.30;;;;;;5050922;28;20051;-71
2021/03/15 09:45:22;;;;;;;8.95;1.50;;;17.30;58.30;;;;;;5051450;28;20078;-70
2021/03/15 09:47:48;;;;;;;5.07;1.35;;;17.30;58.30;;;;;;5051651;28;20404;-70
2021/03/15 09:50:19;;;;;;;4.65;1.63;;;17.30;58.30;;;;;;5051375;28;20443;-70
2021/03/15 09:52:45;;;;;;;3.38;1.40;;;17.20;58.20;;;;;;5050901;28;20017;-71
2021/03/15 09:55:12;;;;;;;2.95;1.30;;;17.30;58.20;;;;;;5051086;28;20055;-71
2021/03/15 09:57:37;;;;;;;4.60;1.55;;;17.30;58.20;;;;;;5051597;28;20120;-70
2021/03/15 10:00:15;;;;;;;3.70;1.35;;;17.20;58.10;;;;;;5051253;28;20104;-71
2021/03/15 10:02:41;;;;;;;3.40;1.33;;;17.20;58.10;;;;;;5016914;28;20039;-70
2021/03/15 10:05:08;;;;;;;3.63;1.02;;;17.20;58.00;;;;;;5033454;28;20028;-71
2021/03/15 10:07:40;;;;;;;3.38;1.30;;;17.20;58.00;;;;;;5051458;28;20036;-72
2021/03/15 10:10:17;;;;;;;3.90;1.45;;;17.30;58.00;;;;;;5050919;28;20068;-70
2021/03/15 10:12:43;;;;;;;2.50;1.15;;;17.20;57.90;;;;;;5051372;28;20033;-71
2021/03/15 10:15:11;;;;;;;3.30;1.15;;;17.20;57.90;;;;;;5050549;28;20025;-70
2021/03/15 10:17:37;;;;;;;3.17;1.60;;;17.20;57.90;;;;;;5050012;28;20028;-70
2021/03/15 10:20:05;;;;;;;4.95;1.30;;;17.20;57.90;;;;;;5049950;28;20036;-70
2021/03/15 10:22:31;;;;;;;3.33;1.20;;;17.20;57.90;;;;;;5051344;28;20028;-71
2021/03/15 10:24:57;;;;;;;5.20;1.50;;;17.10;57.80;;;;;;5050978;28;20021;-71
2021/03/15 10:27:27;;;;;;;3.55;1.35;;;17.10;57.80;;;;;;5051180;28;20043;-70
2021/03/15 10:30:00;;;;;;;3.88;1.17;;;17.10;57.90;;;;;;5051288;28;20025;-70
2021/03/15 10:32:29;;;;;;;4.15;1.17;;;17.10;57.80;;;;;;5051211;28;20033;-71
2021/03/15 10:35:04;;;;;;;6.07;1.55;;;17.20;57.80;;;;;;5051128;28;20017;-70
2021/03/15 10:37:35;;;;;;;6.03;1.63;;;17.10;57.70;;;;;;5051219;28;20025;-71
2021/03/15 10:40:02;;;;;;;3.60;1.00;;;17.20;57.80;;;;;;5050286;28;20540;-76
2021/03/15 10:42:29;;;;;;;6.15;1.23;;;17.10;57.70;;;;;;5033027;28;20405;-71
2021/03/15 10:44:55;;;;;;;6.05;1.33;;;17.10;57.80;;;;;;5050815;28;20021;-70
2021/03/15 10:47:35;;;;;;;4.25;1.20;;;17.10;57.80;;;;;;5050824;28;20443;-71
2021/03/15 10:50:02;;;;;;;4.18;1.13;;;17.10;57.60;;;;;;5050986;28;20036;-70
2021/03/15 10:52:36;;;;;;;4.57;1.08;;;17.10;57.60;;;;;;5053146;28;20143;-70
2021/03/15 10:55:11;;;;;;;1.95;0.90;;;17.10;58.10;;;;;;5053996;28;20025;-71
2021/03/15 10:57:37;;;;;;;;;;;17.20;57.50;;;;;;5054567;28;20025;-70
2021/03/15 11:00:22;;;;;;;4.57;0.93;;;17.20;57.50;;;;;;5054198;28;19920;-72
2021/03/15 11:02:48;;;;;;;5.43;1.00;;;17.10;57.40;;;;;;5054516;28;20519;-75
2021/03/15 11:05:15;;;;;;;2.67;0.82;;;17.10;57.40;;;;;;5054259;28;20025;-76
2021/03/15 11:07:40;;;;;;;4.00;1.02;;;17.10;57.50;;;;;;5053691;28;20032;-72
2021/03/15 11:10:22;;;;;;;4.47;0.93;;;17.10;57.60;;;;;;5054113;28;20112;-71
2021/03/15 11:12:56;;;;;;;4.32;1.10;;;17.20;57.80;;;;;;5054496;28;20096;-71
2021/03/15 11:15:36;;;;;;;4.50;1.00;;;17.30;57.70;;;;;;5054100;28;20029;-71
2021/03/15 11:18:13;;;;;;;4.43;0.80;;;17.50;57.40;;;;;;5054316;28;20079;-72
2021/03/15 11:20:58;;;;;;;3.90;1.05;;;17.60;57.10;;;;;;5054207;28;20384;-73
2021/03/15 11:23:36;;;;;;;1.98;0.63;;;17.80;57.00;;;;;;5054422;28;20463;-73
2021/03/15 11:26:06;;;;;;;3.40;0.90;;;18.10;56.80;;;;;;5054235;28;20021;-72
2021/03/15 11:28:43;;;;;;;2.38;0.80;;;18.20;57.20;;;;;;5053807;28;20036;-72
2021/03/15 11:31:20;;;;;;;3.45;1.00;;;18.40;57.50;;;;;;5054128;28;20055;-75
2021/03/15 11:33:55;;;;;;;4.05;0.80;;;18.60;57.80;;;;;;5053890;28;20021;-74
2021/03/15 11:36:23;;;;;;;1.80;0.88;;;18.70;58.00;;;;;;5053822;28;20017;-74
2021/03/15 11:38:57;;;;;;;1.77;0.60;;;18.80;58.50;;;;;;5053521;28;20040;-74
2021/03/15 11:41:25;;;;;;;4.50;1.05;;;19.00;59.30;;;;;;5053924;28;20017;-75
2021/03/15 11:43:51;;;;;;;2.25;0.93;;;19.30;59.30;;;;;;5053756;28;20033;-74
2021/03/15 11:46:18;;;;;;;11.85;2.83;;;19.40;59.40;;;;;;5053473;28;20029;-76
2021/03/15 11:48:45;;;;;;;20.38;4.72;;;19.70;59.60;;;;;;5053399;28;20037;-73
2021/03/15 11:51:12;;;;;;;16.83;5.18;;;19.90;59.40;;;;;;5053472;28;20090;-73
2021/03/15 11:53:38;;;;;;;15.45;4.63;;;19.90;59.30;;;;;;5052858;28;20527;-75
2021/03/15 11:56:04;;;;;;;19.90;4.70;;;19.90;59.40;;;;;;5053769;28;20029;-76
2021/03/15 11:58:30;;;;;;;18.67;4.05;;;20.00;59.10;;;;;;5053118;28;20487;-71
2021/03/15 12:00:56;;;;;;;13.32;4.30;;;20.10;59.10;;;;;;5051772;28;20108;-71
2021/03/15 12:03:22;;;;;;;19.35;3.60;;;20.30;58.80;;;;;;5032991;28;20053;-71
2021/03/15 12:05:47;;;;;;;16.08;3.50;;;20.40;58.40;;;;;;5051617;28;20031;-72
2021/03/15 12:08:13;;;;;;;13.02;3.65;;;20.50;58.00;;;;;;5051123;28;20076;-71
2021/03/15 12:10:41;;;;;;;13.32;3.72;;;20.70;57.80;;;;;;5048683;28;20029;-71
2021/03/15 12:13:07;;;;;;;12.25;2.83;;;20.90;57.30;;;;;;5048191;28;20047;-72
2021/03/15 12:15:32;;;;;;;11.98;2.85;;;21.00;56.90;;;;;;5051903;28;20489;-71
2021/03/15 12:17:58;;;;;;;13.07;2.70;;;21.10;56.60;;;;;;5051399;28;20029;-71
2021/03/15 12:20:25;;;;;;;11.13;2.30;;;21.20;56.20;;;;;;5050880;28;20508;-73
2021/03/15 12:22:51;;;;;;;9.55;2.42;;;21.30;55.70;;;;;;5051504;28;20028;-79
2021/03/15 12:25:17;;;;;;;6.75;1.60;;;21.30;55.70;;;;;;5051260;28;20013;-72
2021/03/15 12:27:42;;;;;;;17.00;3.03;;;21.40;55.80;;;;;;5051390;28;20036;-74
2021/03/15 12:30:09;;;;;;;7.53;2.13;;;21.50;55.50;;;;;;5051332;28;20104;-72
2021/03/15 12:32:34;;;;;;;4.72;1.67;;;21.60;54.60;;;;;;5051069;28;20028;-71
2021/03/15 12:35:00;;;;;;;6.50;1.90;;;21.70;54.30;;;;;;5051559;28;20029;-72
2021/03/15 12:37:25;;;;;;;7.70;2.30;;;21.80;54.10;;;;;;5052195;28;20063;-71
2021/03/15 12:39:51;;;;;;;5.53;1.40;;;21.80;53.90;;;;;;5034417;28;20021;-71
2021/03/15 12:42:18;;;;;;;7.13;1.63;;;21.80;53.70;;;;;;5052594;28;20064;-72
2021/03/15 12:44:44;;;;;;;4.25;1.60;;;21.70;53.80;;;;;;5052298;28;20021;-74
2021/03/15 12:47:11;;;;;;;6.72;1.80;;;21.80;53.60;;;;;;5052310;28;20127;-73
2021/03/15 12:49:38;;;;;;;7.13;1.58;;;22.80;52.80;;;;;;5051192;28;20025;-73
2021/03/15 12:52:04;;;;;;;4.47;1.25;;;23.20;50.40;;;;;;5052747;28;20028;-72
2021/03/15 12:54:30;;;;;;;5.13;1.42;;;22.60;50.80;;;;;;5052553;28;20023;-73
2021/03/15 12:56:56;;;;;;;4.95;1.13;;;22.10;51.20;;;;;;5052341;28;20029;-72
2021/03/15 12:59:23;;;;;;;5.22;1.60;;;22.00;51.50;;;;;;5051901;28;20024;-73
2021/03/15 13:01:49;;;;;;;5.50;1.13;;;21.80;51.60;;;;;;5051769;28;20496;-72
2021/03/15 13:04:14;;;;;;;4.47;1.35;;;21.70;51.60;;;;;;5051651;28;20032;-73